Cap-Aux-Meules, Canada
Current Conditions -  °F | °C
As of 9:00 PM on Tuesday 21 Oct 2014 (Local Time) from CYGR Reporting Station
Few Clouds Few Clouds  
Wind Chill: 40°   Ceiling: Unl
Heat Index: 45°   Visibility: 15mi
Dew Point: 37°   Wind: 8mph
Humidity: 76%   Direction: 300°WNW
Pressure: 30.27"   Gusts: NA
Location:  47.38°N, 61.87°W
Report Text: CYGR 220000Z 30007KT 15SM FEW025 07/03 A3027 RMK SC2 SLP250
Loading
Personal Weather Stations






























Interactive Weather Map
Tropical Storm Tracking
New forecast layout! Learn more

10-Day Weather Forecast

Advertisements
Track Severe Weather on mobile